createdAt,value
2022-08-07T00:14:30.232Z,0.00
2022-08-07T00:29:26.437Z,0.00
2022-08-07T00:44:26.555Z,0.00
2022-08-07T00:59:35.156Z,0.01
2022-08-07T01:14:28.710Z,0.00
2022-08-07T01:29:27.723Z,0.12
2022-08-07T01:44:26.691Z,0.01
2022-08-07T01:59:30.986Z,0.57
2022-08-07T02:14:36.086Z,0.10
2022-08-07T02:29:26.778Z,0.02
2022-08-07T02:44:34.726Z,0.13
2022-08-07T02:59:27.451Z,0.01
2022-08-07T03:14:27.931Z,0.00
2022-08-07T03:29:27.641Z,0.00
2022-08-07T03:44:34.564Z,0.00
2022-08-07T03:59:27.001Z,0.00
2022-08-07T04:14:38.645Z,0.00
2022-08-07T04:29:27.072Z,0.30
2022-08-07T04:44:27.153Z,0.52
2022-08-07T05:00:11.803Z,0.73
2022-08-07T05:14:55.527Z,1.08
2022-08-07T05:29:27.332Z,1.37
2022-08-07T05:44:29.292Z,1.36
2022-08-07T05:59:28.024Z,1.63
2022-08-07T06:14:28.851Z,1.16
2022-08-07T06:29:27.552Z,0.85
2022-08-07T06:44:31.149Z,1.30
2022-08-07T07:00:13.862Z,1.12
2022-08-07T07:14:27.504Z,1.47
2022-08-07T07:29:39.180Z,1.46
2022-08-07T07:44:27.833Z,1.34
2022-08-07T07:59:52.766Z,0.99
2022-08-07T08:14:27.912Z,1.55
2022-08-07T08:29:27.920Z,1.56
2022-08-07T08:44:29.315Z,1.27
2022-08-07T08:59:27.820Z,1.94
2022-08-07T09:14:29.635Z,2.07
2022-08-07T09:30:03.873Z,1.90
2022-08-07T09:44:32.839Z,2.86
2022-08-07T09:59:30.525Z,2.52
2022-08-07T10:14:31.965Z,2.39
2022-08-07T10:29:30.153Z,1.90
2022-08-07T10:44:33.778Z,1.59
2022-08-07T10:59:30.446Z,1.78
2022-08-07T11:14:43.989Z,1.95
2022-08-07T11:29:41.791Z,2.10
2022-08-07T11:44:28.473Z,2.63
2022-08-07T12:00:10.443Z,2.43
2022-08-07T12:14:28.520Z,1.07
2022-08-07T12:29:37.527Z,2.99
2022-08-07T12:44:28.438Z,2.60
2022-08-07T12:59:30.471Z,2.44
2022-08-07T13:14:29.104Z,3.06
2022-08-07T13:29:28.535Z,2.41
2022-08-07T13:44:34.686Z,1.80
2022-08-07T13:59:28.832Z,2.05
2022-08-07T14:14:29.991Z,3.24
2022-08-07T14:30:05.824Z,2.08
2022-08-07T14:44:29.074Z,2.17
2022-08-07T15:00:05.781Z,3.08
2022-08-07T15:14:30.818Z,3.32
2022-08-07T15:30:06.885Z,1.83
2022-08-07T15:44:28.939Z,2.74
2022-08-07T15:59:43.794Z,2.16
2022-08-07T16:14:29.169Z,2.42
2022-08-07T16:30:11.001Z,2.10
2022-08-07T16:44:40.215Z,2.63
2022-08-07T16:59:46.377Z,2.31
2022-08-07T17:14:29.205Z,2.33
2022-08-07T17:30:15.380Z,2.49
2022-08-07T17:44:33.591Z,2.38
2022-08-07T17:59:35.727Z,2.40
2022-08-07T18:14:29.191Z,1.80
2022-08-07T18:30:05.703Z,1.78
2022-08-07T18:44:29.463Z,1.62
2022-08-07T18:59:47.325Z,1.93
2022-08-07T19:14:29.551Z,1.67
2022-08-07T19:31:02.072Z,1.27
2022-08-07T19:44:31.518Z,0.95
2022-08-07T19:59:40.686Z,0.69
2022-08-07T20:14:31.336Z,1.21
2022-08-07T20:29:48.907Z,0.89
2022-08-07T20:44:29.825Z,0.87
2022-08-07T21:00:06.222Z,0.96
2022-08-07T21:14:34.280Z,1.24
2022-08-07T21:29:30.367Z,1.64
2022-08-07T21:44:30.291Z,1.37
2022-08-07T21:59:30.110Z,1.67
2022-08-07T22:14:34.844Z,1.49
2022-08-07T22:29:38.098Z,1.58
2022-08-07T22:44:32.650Z,1.16
2022-08-07T22:59:32.699Z,0.95
2022-08-07T23:14:30.724Z,1.01
2022-08-07T23:29:43.454Z,0.97
2022-08-07T23:44:30.658Z,0.73
